ACT weather

Public forecast

Using degrees Fahrenheit for public forecast. Weather courtesy of forecast.io.

Current aviation weather report (METAR) for Waco Regional Airport

Retrieved 2020/08/10 03:51 UTC (1 hour ago):

KACT 100351Z AUTO 16016G22KT 10SM CLR 31/21 A3001 RMK AO2 SLP152 T03110211

Aviation forecast (TAF) for Waco Regional Airport

Retrieved 2020-08-10 00:42 UTC (4 hours ago):

TAF KACT 092338Z 1000/1024 18010KT P6SM FEW250 FM101700 18010G20KT P6SM SKC